Asian Captain — D7AQ — position and weather

sailwx.info

Track history (hours):
 
Tides and Currents Weather Stations Pressure Air Temp Water Temp Dewpoint Dewpoint Depression Visibility Wind Speed Wind Dir Waves Ship Positions

Asian Captain

Last reported at 2018-May-08 13:30 UTC. Time now 2018-May-20 17:54 UTC.
Position N 41°36' E 141°24'.
Warning: this ship's position is 12 days out of date.

Length 229 m; draft 8.9 m.

Type: Cargo ship. MMSI: 440371000.

Date/timePositionNaut miles runAvg speedWind from/ knotsBaromVisibWave heightAir tempDewpointWater temp
2018-May-08 13:30N 41°36' E 141°24'918.6
2018-May-08 13:01N 41°36' E 141°11'1020.6
2018-May-08 12:31N 41°37' E 140°58'1019.0
2018-May-08 12:00N 41°35' E 140°45'1019.1
2018-May-08 11:31N 41°30' E 140°34'1019.5
2018-May-08 11:01N 41°24' E 140°24'1020.1
2018-May-08 10:29N 41°18' E 140°14'  
2018-May-03 15:00N 37°59' E 122°28'816.5
2018-May-03 14:30N 38°02' E 122°18'816.5
2018-May-03 14:00N 38°05' E 122°09'816.5
2018-May-03 13:30N 38°09' E 121°59'1616.7
2018-May-03 12:34N 38°16' E 121°41'317.0
2018-May-03 12:22N 38°17' E 121°37'616.6
2018-May-03 11:59N 38°17' E 121°29'916.9
2018-May-03 11:28N 38°23' E 121°20'816.9
2018-May-03 10:59N 38°26' E 121°11'816.7
2018-May-03 10:30N 38°30' E 121°02'2112.1
2018-May-03 08:45N 38°38' E 120°37'415.3
2018-May-03 08:30N 38°38' E 120°32'15 0.3
2018-May-01 05:41N 38°39' E 120°12'  
2018-Apr-28 20:35N 33°51' E 127°51'4517.8
2018-Apr-28 18:06N 34°14' E 128°37'418.4
2018-Apr-28 17:52N 34°17' E 128°40'1817.4
2018-Apr-28 16:49N 34°29' E 128°56'617.9
2018-Apr-28 16:30N 34°34' E 128°59'917.6
2018-Apr-28 16:00N 34°43' E 129°03'817.2
2018-Apr-28 15:30N 34°51' E 129°06'917.2
2018-Apr-28 15:00N 34°59' E 129°10'816.9
2018-Apr-28 14:30N 35°06' E 129°16'916.8
2018-Apr-28 13:59N 35°14' E 129°19'  
Track history (hours):
 
Tides and Currents Weather Stations Pressure Air Temp Water Temp Dewpoint Dewpoint Depression Visibility Wind Speed Wind Dir Waves Ship Positions

Asian Captain

Last reported at 2018-May-08 13:30 UTC. Time now 2018-May-20 17:54 UTC.
Position N 41°36' E 141°24'.
Warning: this ship's position is 12 days out of date.

Length 229 m; draft 8.9 m.

Type: Cargo ship. MMSI: 440371000.

Date/timePositionNaut miles runAvg speedWind from/ knotsBaromVisibWave heightAir tempDewpointWater temp
2018-May-08 13:30N 41°36' E 141°24'918.6
2018-May-08 13:01N 41°36' E 141°11'1020.6
2018-May-08 12:31N 41°37' E 140°58'1019.0
2018-May-08 12:00N 41°35' E 140°45'1019.1
2018-May-08 11:31N 41°30' E 140°34'1019.5
2018-May-08 11:01N 41°24' E 140°24'1020.1
2018-May-08 10:29N 41°18' E 140°14'  
2018-May-03 15:00N 37°59' E 122°28'816.5
2018-May-03 14:30N 38°02' E 122°18'816.5
2018-May-03 14:00N 38°05' E 122°09'816.5
2018-May-03 13:30N 38°09' E 121°59'1616.7
2018-May-03 12:34N 38°16' E 121°41'317.0
2018-May-03 12:22N 38°17' E 121°37'616.6
2018-May-03 11:59N 38°17' E 121°29'916.9
2018-May-03 11:28N 38°23' E 121°20'816.9
2018-May-03 10:59N 38°26' E 121°11'816.7
2018-May-03 10:30N 38°30' E 121°02'2112.1
2018-May-03 08:45N 38°38' E 120°37'415.3
2018-May-03 08:30N 38°38' E 120°32'15 0.3
2018-May-01 05:41N 38°39' E 120°12'  
2018-Apr-28 20:35N 33°51' E 127°51'4517.8
2018-Apr-28 18:06N 34°14' E 128°37'418.4
2018-Apr-28 17:52N 34°17' E 128°40'1817.4
2018-Apr-28 16:49N 34°29' E 128°56'617.9
2018-Apr-28 16:30N 34°34' E 128°59'917.6
2018-Apr-28 16:00N 34°43' E 129°03'817.2
2018-Apr-28 15:30N 34°51' E 129°06'917.2
2018-Apr-28 15:00N 34°59' E 129°10'816.9
2018-Apr-28 14:30N 35°06' E 129°16'916.8
2018-Apr-28 13:59N 35°14' E 129°19'  

Dump ship's entire track history